sensor_id;sensor_type;location;lat;lon;timestamp;P1;durP1;ratioP1;P2;durP2;ratioP2
38089;SDS011;23904;52.322;10.232;2023-08-24T00:01:06;7.68;;;2.80;;
38089;SDS011;23904;52.322;10.232;2023-08-24T00:03:33;7.65;;;2.50;;
38089;SDS011;23904;52.322;10.232;2023-08-24T00:05:59;4.70;;;2.42;;
38089;SDS011;23904;52.322;10.232;2023-08-24T00:08:25;5.05;;;2.47;;
38089;SDS011;23904;52.322;10.232;2023-08-24T00:10:51;5.65;;;2.58;;
38089;SDS011;23904;52.322;10.232;2023-08-24T00:13:16;6.40;;;2.78;;
38089;SDS011;23904;52.322;10.232;2023-08-24T00:15:42;7.30;;;2.80;;
38089;SDS011;23904;52.322;10.232;2023-08-24T00:18:08;8.55;;;3.00;;
38089;SDS011;23904;52.322;10.232;2023-08-24T00:20:33;6.75;;;2.65;;
38089;SDS011;23904;52.322;10.232;2023-08-24T00:22:59;6.85;;;2.50;;
38089;SDS011;23904;52.322;10.232;2023-08-24T00:25:25;7.00;;;3.13;;
38089;SDS011;23904;52.322;10.232;2023-08-24T00:27:54;5.10;;;2.75;;
38089;SDS011;23904;52.322;10.232;2023-08-24T00:30:20;6.45;;;2.80;;
38089;SDS011;23904;52.322;10.232;2023-08-24T00:32:45;8.05;;;2.90;;
38089;SDS011;23904;52.322;10.232;2023-08-24T00:35:11;5.82;;;3.03;;
38089;SDS011;23904;52.322;10.232;2023-08-24T00:37:37;5.40;;;2.53;;
38089;SDS011;23904;52.322;10.232;2023-08-24T00:40:04;11.02;;;3.25;;
38089;SDS011;23904;52.322;10.232;2023-08-24T00:42:40;9.85;;;3.88;;
38089;SDS011;23904;52.322;10.232;2023-08-24T00:45:08;8.40;;;2.80;;
38089;SDS011;23904;52.322;10.232;2023-08-24T00:47:36;5.75;;;2.88;;
38089;SDS011;23904;52.322;10.232;2023-08-24T00:50:07;6.90;;;3.08;;
38089;SDS011;23904;52.322;10.232;2023-08-24T00:52:35;3.95;;;3.10;;
38089;SDS011;23904;52.322;10.232;2023-08-24T00:55:04;7.30;;;3.13;;
38089;SDS011;23904;52.322;10.232;2023-08-24T00:57:31;6.38;;;4.13;;
38089;SDS011;23904;52.322;10.232;2023-08-24T00:59:59;8.45;;;3.03;;
38089;SDS011;23904;52.322;10.232;2023-08-24T01:02:27;9.05;;;3.50;;
38089;SDS011;23904;52.322;10.232;2023-08-24T01:04:53;7.93;;;3.80;;
38089;SDS011;23904;52.322;10.232;2023-08-24T01:07:19;9.57;;;3.40;;
38089;SDS011;23904;52.322;10.232;2023-08-24T01:09:46;8.60;;;3.83;;
38089;SDS011;23904;52.322;10.232;2023-08-24T01:12:20;7.97;;;3.35;;
38089;SDS011;23904;52.322;10.232;2023-08-24T01:14:59;9.63;;;3.88;;
38089;SDS011;23904;52.322;10.232;2023-08-24T01:17:42;10.35;;;3.55;;
38089;SDS011;23904;52.322;10.232;2023-08-24T01:20:08;8.23;;;4.18;;
38089;SDS011;23904;52.322;10.232;2023-08-24T01:22:37;5.07;;;3.35;;
38089;SDS011;23904;52.322;10.232;2023-08-24T01:25:17;6.50;;;3.65;;
38089;SDS011;23904;52.322;10.232;2023-08-24T01:27:55;5.97;;;3.28;;
38089;SDS011;23904;52.322;10.232;2023-08-24T01:30:22;8.80;;;3.83;;
38089;SDS011;23904;52.322;10.232;2023-08-24T01:32:47;13.85;;;4.32;;
38089;SDS011;23904;52.322;10.232;2023-08-24T01:35:14;8.63;;;3.63;;
38089;SDS011;23904;52.322;10.232;2023-08-24T01:37:39;4.82;;;3.28;;
38089;SDS011;23904;52.322;10.232;2023-08-24T01:40:06;6.00;;;3.63;;
38089;SDS011;23904;52.322;10.232;2023-08-24T01:42:43;11.75;;;3.20;;
38089;SDS011;23904;52.322;10.232;2023-08-24T01:45:24;8.35;;;3.97;;
38089;SDS011;23904;52.322;10.232;2023-08-24T01:47:52;12.48;;;4.00;;
38089;SDS011;23904;52.322;10.232;2023-08-24T01:50:21;7.32;;;4.07;;
38089;SDS011;23904;52.322;10.232;2023-08-24T01:52:47;8.85;;;4.03;;
38089;SDS011;23904;52.322;10.232;2023-08-24T01:55:14;7.82;;;3.45;;
38089;SDS011;23904;52.322;10.232;2023-08-24T01:57:44;6.03;;;3.60;;
38089;SDS011;23904;52.322;10.232;2023-08-24T02:00:09;8.35;;;3.58;;
38089;SDS011;23904;52.322;10.232;2023-08-24T02:02:36;8.95;;;4.00;;
38089;SDS011;23904;52.322;10.232;2023-08-24T02:05:02;7.30;;;3.80;;
38089;SDS011;23904;52.322;10.232;2023-08-24T02:07:28;7.60;;;4.03;;
38089;SDS011;23904;52.322;10.232;2023-08-24T02:09:54;9.90;;;3.70;;
38089;SDS011;23904;52.322;10.232;2023-08-24T02:12:20;9.65;;;4.13;;
38089;SDS011;23904;52.322;10.232;2023-08-24T02:14:45;7.13;;;3.60;;
38089;SDS011;23904;52.322;10.232;2023-08-24T02:17:11;10.10;;;3.78;;
38089;SDS011;23904;52.322;10.232;2023-08-24T02:19:37;6.15;;;3.10;;
38089;SDS011;23904;52.322;10.232;2023-08-24T02:22:02;4.50;;;3.53;;
38089;SDS011;23904;52.322;10.232;2023-08-24T02:24:28;8.55;;;3.70;;
38089;SDS011;23904;52.322;10.232;2023-08-24T02:26:53;9.15;;;3.65;;
38089;SDS011;23904;52.322;10.232;2023-08-24T02:29:19;6.35;;;4.57;;
38089;SDS011;23904;52.322;10.232;2023-08-24T02:31:44;5.13;;;3.47;;
38089;SDS011;23904;52.322;10.232;2023-08-24T02:34:10;8.70;;;4.68;;
38089;SDS011;23904;52.322;10.232;2023-08-24T02:36:36;6.82;;;4.20;;
38089;SDS011;23904;52.322;10.232;2023-08-24T02:39:01;8.23;;;3.85;;
38089;SDS011;23904;52.322;10.232;2023-08-24T02:41:27;7.53;;;3.92;;
38089;SDS011;23904;52.322;10.232;2023-08-24T02:43:53;5.90;;;3.58;;
38089;SDS011;23904;52.322;10.232;2023-08-24T02:46:20;7.03;;;3.75;;
38089;SDS011;23904;52.322;10.232;2023-08-24T02:48:46;6.80;;;3.78;;
38089;SDS011;23904;52.322;10.232;2023-08-24T02:51:13;11.73;;;3.97;;
38089;SDS011;23904;52.322;10.232;2023-08-24T02:53:38;7.82;;;4.80;;
38089;SDS011;23904;52.322;10.232;2023-08-24T02:56:04;9.23;;;4.20;;
38089;SDS011;23904;52.322;10.232;2023-08-24T02:58:30;7.78;;;3.72;;
38089;SDS011;23904;52.322;10.232;2023-08-24T03:00:56;8.02;;;3.92;;
38089;SDS011;23904;52.322;10.232;2023-08-24T03:03:23;5.47;;;3.65;;
38089;SDS011;23904;52.322;10.232;2023-08-24T03:05:59;8.48;;;3.63;;
38089;SDS011;23904;52.322;10.232;2023-08-24T03:08:27;8.45;;;3.95;;
38089;SDS011;23904;52.322;10.232;2023-08-24T03:10:54;6.00;;;3.72;;
38089;SDS011;23904;52.322;10.232;2023-08-24T03:13:19;10.98;;;4.28;;
38089;SDS011;23904;52.322;10.232;2023-08-24T03:15:45;7.70;;;4.10;;
38089;SDS011;23904;52.322;10.232;2023-08-24T03:18:11;8.50;;;4.30;;
38089;SDS011;23904;52.322;10.232;2023-08-24T03:20:38;5.63;;;3.78;;
38089;SDS011;23904;52.322;10.232;2023-08-24T03:23:05;6.50;;;3.30;;
38089;SDS011;23904;52.322;10.232;2023-08-24T03:25:34;6.70;;;4.00;;
38089;SDS011;23904;52.322;10.232;2023-08-24T03:28:02;6.10;;;3.90;;
38089;SDS011;23904;52.322;10.232;2023-08-24T03:30:29;10.43;;;4.18;;
38089;SDS011;23904;52.322;10.232;2023-08-24T03:32:55;7.93;;;5.03;;
38089;SDS011;23904;52.322;10.232;2023-08-24T03:35:20;7.75;;;3.90;;
38089;SDS011;23904;52.322;10.232;2023-08-24T03:37:46;6.53;;;4.30;;
38089;SDS011;23904;52.322;10.232;2023-08-24T03:40:12;7.35;;;4.00;;
38089;SDS011;23904;52.322;10.232;2023-08-24T03:42:38;9.15;;;4.55;;
38089;SDS011;23904;52.322;10.232;2023-08-24T03:45:04;7.95;;;4.57;;
38089;SDS011;23904;52.322;10.232;2023-08-24T03:47:30;6.55;;;4.35;;
38089;SDS011;23904;52.322;10.232;2023-08-24T03:49:56;6.85;;;4.38;;
38089;SDS011;23904;52.322;10.232;2023-08-24T03:52:21;8.85;;;4.35;;
38089;SDS011;23904;52.322;10.232;2023-08-24T03:54:47;5.30;;;4.40;;
38089;SDS011;23904;52.322;10.232;2023-08-24T03:57:13;7.03;;;4.78;;
38089;SDS011;23904;52.322;10.232;2023-08-24T03:59:40;10.43;;;4.28;;
38089;SDS011;23904;52.322;10.232;2023-08-24T04:02:06;9.02;;;5.18;;
38089;SDS011;23904;52.322;10.232;2023-08-24T04:04:31;6.75;;;4.28;;
38089;SDS011;23904;52.322;10.232;2023-08-24T04:06:57;9.50;;;4.60;;
38089;SDS011;23904;52.322;10.232;2023-08-24T04:09:23;9.38;;;4.75;;
38089;SDS011;23904;52.322;10.232;2023-08-24T04:11:49;10.88;;;5.28;;
38089;SDS011;23904;52.322;10.232;2023-08-24T04:14:14;7.95;;;5.53;;
38089;SDS011;23904;52.322;10.232;2023-08-24T04:16:40;10.48;;;5.95;;
38089;SDS011;23904;52.322;10.232;2023-08-24T04:19:06;10.38;;;5.55;;
38089;SDS011;23904;52.322;10.232;2023-08-24T04:21:33;7.40;;;5.57;;
38089;SDS011;23904;52.322;10.232;2023-08-24T04:23:59;10.05;;;5.60;;
38089;SDS011;23904;52.322;10.232;2023-08-24T04:26:24;11.13;;;5.15;;
38089;SDS011;23904;52.322;10.232;2023-08-24T04:28:50;8.05;;;5.40;;
38089;SDS011;23904;52.322;10.232;2023-08-24T04:31:16;9.82;;;5.93;;
38089;SDS011;23904;52.322;10.232;2023-08-24T04:33:41;7.18;;;5.43;;
38089;SDS011;23904;52.322;10.232;2023-08-24T04:36:07;9.07;;;5.97;;
38089;SDS011;23904;52.322;10.232;2023-08-24T04:38:33;10.73;;;6.18;;
38089;SDS011;23904;52.322;10.232;2023-08-24T04:40:59;9.85;;;6.07;;
38089;SDS011;23904;52.322;10.232;2023-08-24T04:43:25;7.25;;;5.68;;
38089;SDS011;23904;52.322;10.232;2023-08-24T04:45:52;8.88;;;6.10;;
38089;SDS011;23904;52.322;10.232;2023-08-24T04:48:19;8.30;;;6.05;;
38089;SDS011;23904;52.322;10.232;2023-08-24T04:50:46;10.18;;;5.97;;
38089;SDS011;23904;52.322;10.232;2023-08-24T04:53:14;9.52;;;6.18;;
38089;SDS011;23904;52.322;10.232;2023-08-24T04:55:42;10.10;;;6.80;;
38089;SDS011;23904;52.322;10.232;2023-08-24T04:58:08;8.65;;;6.25;;
38089;SDS011;23904;52.322;10.232;2023-08-24T05:00:35;7.97;;;6.00;;
38089;SDS011;23904;52.322;10.232;2023-08-24T05:03:02;7.32;;;5.75;;
38089;SDS011;23904;52.322;10.232;2023-08-24T05:05:29;8.10;;;6.07;;
38089;SDS011;23904;52.322;10.232;2023-08-24T05:07:56;10.82;;;6.70;;
38089;SDS011;23904;52.322;10.232;2023-08-24T05:10:22;10.27;;;6.55;;
38089;SDS011;23904;52.322;10.232;2023-08-24T05:12:49;12.18;;;7.10;;
38089;SDS011;23904;52.322;10.232;2023-08-24T05:15:14;10.52;;;6.75;;
38089;SDS011;23904;52.322;10.232;2023-08-24T05:17:40;9.48;;;6.57;;
38089;SDS011;23904;52.322;10.232;2023-08-24T05:20:06;9.75;;;6.22;;
38089;SDS011;23904;52.322;10.232;2023-08-24T05:22:33;12.57;;;7.30;;
38089;SDS011;23904;52.322;10.232;2023-08-24T05:24:59;9.02;;;6.30;;
38089;SDS011;23904;52.322;10.232;2023-08-24T05:27:25;12.77;;;8.00;;
38089;SDS011;23904;52.322;10.232;2023-08-24T05:29:51;11.50;;;6.65;;
38089;SDS011;23904;52.322;10.232;2023-08-24T05:32:16;12.55;;;6.97;;
38089;SDS011;23904;52.322;10.232;2023-08-24T05:34:42;8.25;;;6.10;;
38089;SDS011;23904;52.322;10.232;2023-08-24T05:37:07;12.80;;;8.10;;
38089;SDS011;23904;52.322;10.232;2023-08-24T05:39:33;8.10;;;6.32;;
38089;SDS011;23904;52.322;10.232;2023-08-24T05:41:58;10.63;;;6.75;;
38089;SDS011;23904;52.322;10.232;2023-08-24T05:44:24;15.90;;;7.90;;
38089;SDS011;23904;52.322;10.232;2023-08-24T05:46:49;12.05;;;8.35;;
38089;SDS011;23904;52.322;10.232;2023-08-24T05:49:15;11.98;;;7.60;;
38089;SDS011;23904;52.322;10.232;2023-08-24T05:51:40;8.98;;;7.20;;
38089;SDS011;23904;52.322;10.232;2023-08-24T05:54:06;9.82;;;6.65;;
38089;SDS011;23904;52.322;10.232;2023-08-24T05:56:32;8.27;;;6.60;;
38089;SDS011;23904;52.322;10.232;2023-08-24T05:58:58;11.35;;;7.68;;
38089;SDS011;23904;52.322;10.232;2023-08-24T06:01:24;9.45;;;6.55;;
38089;SDS011;23904;52.322;10.232;2023-08-24T06:03:50;9.13;;;6.45;;
38089;SDS011;23904;52.322;10.232;2023-08-24T06:06:16;12.23;;;6.53;;
38089;SDS011;23904;52.322;10.232;2023-08-24T06:08:42;9.85;;;6.32;;
38089;SDS011;23904;52.322;10.232;2023-08-24T06:11:08;9.90;;;6.18;;
38089;SDS011;23904;52.322;10.232;2023-08-24T06:13:34;9.40;;;6.22;;
38089;SDS011;23904;52.322;10.232;2023-08-24T06:16:00;10.68;;;6.00;;
38089;SDS011;23904;52.322;10.232;2023-08-24T06:18:26;9.90;;;6.57;;
38089;SDS011;23904;52.322;10.232;2023-08-24T06:20:53;10.77;;;6.47;;
38089;SDS011;23904;52.322;10.232;2023-08-24T06:23:19;12.43;;;7.35;;
38089;SDS011;23904;52.322;10.232;2023-08-24T06:25:45;8.52;;;6.75;;
38089;SDS011;23904;52.322;10.232;2023-08-24T06:28:11;6.63;;;5.93;;
38089;SDS011;23904;52.322;10.232;2023-08-24T06:30:37;10.52;;;6.60;;
38089;SDS011;23904;52.322;10.232;2023-08-24T06:33:04;8.68;;;6.70;;
38089;SDS011;23904;52.322;10.232;2023-08-24T06:35:32;9.40;;;7.05;;
38089;SDS011;23904;52.322;10.232;2023-08-24T06:37:58;10.68;;;6.80;;
38089;SDS011;23904;52.322;10.232;2023-08-24T06:40:24;8.18;;;6.88;;
38089;SDS011;23904;52.322;10.232;2023-08-24T06:42:50;10.55;;;6.57;;
38089;SDS011;23904;52.322;10.232;2023-08-24T06:45:16;9.55;;;6.28;;
38089;SDS011;23904;52.322;10.232;2023-08-24T06:47:43;8.73;;;6.15;;
38089;SDS011;23904;52.322;10.232;2023-08-24T06:50:09;28.70;;;6.72;;
38089;SDS011;23904;52.322;10.232;2023-08-24T06:52:35;10.13;;;6.65;;
38089;SDS011;23904;52.322;10.232;2023-08-24T06:55:01;9.18;;;6.50;;
38089;SDS011;23904;52.322;10.232;2023-08-24T06:57:27;10.13;;;6.18;;
38089;SDS011;23904;52.322;10.232;2023-08-24T06:59:53;15.40;;;7.20;;
38089;SDS011;23904;52.322;10.232;2023-08-24T07:02:18;10.90;;;6.47;;
38089;SDS011;23904;52.322;10.232;2023-08-24T07:04:44;9.15;;;6.25;;
38089;SDS011;23904;52.322;10.232;2023-08-24T07:07:10;10.45;;;6.82;;
38089;SDS011;23904;52.322;10.232;2023-08-24T07:09:35;7.13;;;5.53;;
38089;SDS011;23904;52.322;10.232;2023-08-24T07:12:01;7.35;;;5.30;;
38089;SDS011;23904;52.322;10.232;2023-08-24T07:14:28;10.63;;;5.40;;
38089;SDS011;23904;52.322;10.232;2023-08-24T07:16:54;10.65;;;6.18;;
38089;SDS011;23904;52.322;10.232;2023-08-24T07:19:19;10.40;;;5.10;;
38089;SDS011;23904;52.322;10.232;2023-08-24T07:21:45;7.80;;;5.53;;
38089;SDS011;23904;52.322;10.232;2023-08-24T07:24:11;5.13;;;4.40;;
38089;SDS011;23904;52.322;10.232;2023-08-24T07:26:36;8.70;;;5.28;;
38089;SDS011;23904;52.322;10.232;2023-08-24T07:29:02;8.05;;;5.20;;
38089;SDS011;23904;52.322;10.232;2023-08-24T07:31:28;7.65;;;4.85;;
38089;SDS011;23904;52.322;10.232;2023-08-24T07:33:53;5.75;;;4.53;;
38089;SDS011;23904;52.322;10.232;2023-08-24T07:36:19;9.02;;;5.30;;
38089;SDS011;23904;52.322;10.232;2023-08-24T07:38:45;7.95;;;5.38;;
38089;SDS011;23904;52.322;10.232;2023-08-24T07:41:14;10.05;;;6.22;;
38089;SDS011;23904;52.322;10.232;2023-08-24T07:43:42;8.60;;;6.15;;
38089;SDS011;23904;52.322;10.232;2023-08-24T07:46:08;9.02;;;5.50;;
38089;SDS011;23904;52.322;10.232;2023-08-24T07:48:34;6.85;;;5.00;;
38089;SDS011;23904;52.322;10.232;2023-08-24T07:51:00;10.50;;;5.78;;
38089;SDS011;23904;52.322;10.232;2023-08-24T07:53:25;11.65;;;6.25;;
38089;SDS011;23904;52.322;10.232;2023-08-24T07:55:52;7.63;;;5.25;;
38089;SDS011;23904;52.322;10.232;2023-08-24T07:58:20;8.35;;;5.10;;
38089;SDS011;23904;52.322;10.232;2023-08-24T08:00:48;9.63;;;4.68;;
38089;SDS011;23904;52.322;10.232;2023-08-24T08:03:16;8.95;;;5.35;;
38089;SDS011;23904;52.322;10.232;2023-08-24T08:05:45;10.43;;;4.72;;
38089;SDS011;23904;52.322;10.232;2023-08-24T08:08:13;10.77;;;5.18;;
38089;SDS011;23904;52.322;10.232;2023-08-24T08:10:39;7.38;;;4.00;;
38089;SDS011;23904;52.322;10.232;2023-08-24T08:13:06;13.20;;;5.57;;
38089;SDS011;23904;52.322;10.232;2023-08-24T08:15:33;14.90;;;6.63;;
38089;SDS011;23904;52.322;10.232;2023-08-24T08:17:59;16.10;;;6.03;;
38089;SDS011;23904;52.322;10.232;2023-08-24T08:20:24;14.40;;;5.28;;
38089;SDS011;23904;52.322;10.232;2023-08-24T08:22:50;6.93;;;3.40;;
38089;SDS011;23904;52.322;10.232;2023-08-24T08:25:16;6.65;;;3.40;;
38089;SDS011;23904;52.322;10.232;2023-08-24T08:27:44;4.63;;;3.78;;
38089;SDS011;23904;52.322;10.232;2023-08-24T08:30:10;6.43;;;4.18;;
38089;SDS011;23904;52.322;10.232;2023-08-24T08:32:37;5.78;;;3.80;;
38089;SDS011;23904;52.322;10.232;2023-08-24T08:35:02;12.95;;;3.55;;
38089;SDS011;23904;52.322;10.232;2023-08-24T08:37:32;3.72;;;2.63;;
38089;SDS011;23904;52.322;10.232;2023-08-24T08:39:58;5.72;;;3.10;;
38089;SDS011;23904;52.322;10.232;2023-08-24T08:42:23;4.07;;;2.35;;
38089;SDS011;23904;52.322;10.232;2023-08-24T08:44:49;5.60;;;2.33;;
38089;SDS011;23904;52.322;10.232;2023-08-24T08:47:18;6.78;;;2.88;;
38089;SDS011;23904;52.322;10.232;2023-08-24T08:49:47;5.03;;;3.00;;
38089;SDS011;23904;52.322;10.232;2023-08-24T08:52:13;5.55;;;2.05;;
38089;SDS011;23904;52.322;10.232;2023-08-24T08:54:39;3.95;;;2.60;;
38089;SDS011;23904;52.322;10.232;2023-08-24T08:57:08;7.18;;;1.90;;
38089;SDS011;23904;52.322;10.232;2023-08-24T08:59:34;8.80;;;2.63;;
38089;SDS011;23904;52.322;10.232;2023-08-24T09:02:02;7.38;;;2.08;;
38089;SDS011;23904;52.322;10.232;2023-08-24T09:04:31;4.22;;;1.98;;
38089;SDS011;23904;52.322;10.232;2023-08-24T09:06:58;5.13;;;2.15;;
38089;SDS011;23904;52.322;10.232;2023-08-24T09:09:29;4.82;;;1.98;;
38089;SDS011;23904;52.322;10.232;2023-08-24T09:11:55;9.73;;;2.35;;
38089;SDS011;23904;52.322;10.232;2023-08-24T09:14:22;5.47;;;1.85;;
38089;SDS011;23904;52.322;10.232;2023-08-24T09:16:47;4.72;;;2.17;;
38089;SDS011;23904;52.322;10.232;2023-08-24T09:19:13;4.40;;;2.22;;
38089;SDS011;23904;52.322;10.232;2023-08-24T09:21:38;5.35;;;3.63;;
38089;SDS011;23904;52.322;10.232;2023-08-24T09:24:06;7.65;;;2.50;;
38089;SDS011;23904;52.322;10.232;2023-08-24T09:26:37;7.57;;;2.20;;
38089;SDS011;23904;52.322;10.232;2023-08-24T09:29:14;5.35;;;1.80;;
38089;SDS011;23904;52.322;10.232;2023-08-24T09:31:40;3.88;;;2.00;;
38089;SDS011;23904;52.322;10.232;2023-08-24T09:34:10;5.40;;;1.70;;
38089;SDS011;23904;52.322;10.232;2023-08-24T09:36:36;5.85;;;2.35;;
38089;SDS011;23904;52.322;10.232;2023-08-24T09:39:03;4.65;;;2.00;;
38089;SDS011;23904;52.322;10.232;2023-08-24T09:44:16;3.45;;;2.13;;
38089;SDS011;23904;52.322;10.232;2023-08-24T09:46:43;4.22;;;2.08;;
38089;SDS011;23904;52.322;10.232;2023-08-24T09:49:09;5.38;;;2.22;;
38089;SDS011;23904;52.322;10.232;2023-08-24T09:51:37;4.32;;;2.08;;
38089;SDS011;23904;52.322;10.232;2023-08-24T09:54:05;4.97;;;2.05;;
38089;SDS011;23904;52.322;10.232;2023-08-24T09:56:37;4.50;;;2.00;;
38089;SDS011;23904;52.322;10.232;2023-08-24T09:59:07;3.85;;;1.92;;
38089;SDS011;23904;52.322;10.232;2023-08-24T10:01:37;10.00;;;2.63;;
38089;SDS011;23904;52.322;10.232;2023-08-24T10:04:06;4.97;;;2.40;;
38089;SDS011;23904;52.322;10.232;2023-08-24T10:06:34;6.30;;;2.80;;
38089;SDS011;23904;52.322;10.232;2023-08-24T10:09:02;4.55;;;2.22;;
38089;SDS011;23904;52.322;10.232;2023-08-24T10:11:42;4.43;;;2.25;;
38089;SDS011;23904;52.322;10.232;2023-08-24T10:14:50;7.97;;;3.03;;
38089;SDS011;23904;52.322;10.232;2023-08-24T10:17:14;8.13;;;3.03;;
38089;SDS011;23904;52.322;10.232;2023-08-24T10:19:41;11.95;;;3.20;;
38089;SDS011;23904;52.322;10.232;2023-08-24T10:22:08;14.85;;;3.80;;
38089;SDS011;23904;52.322;10.232;2023-08-24T10:24:35;10.30;;;3.17;;
38089;SDS011;23904;52.322;10.232;2023-08-24T10:27:01;13.13;;;3.53;;
38089;SDS011;23904;52.322;10.232;2023-08-24T10:29:28;12.23;;;2.85;;
38089;SDS011;23904;52.322;10.232;2023-08-24T10:31:54;8.25;;;3.20;;
38089;SDS011;23904;52.322;10.232;2023-08-24T10:34:21;8.93;;;2.90;;
38089;SDS011;23904;52.322;10.232;2023-08-24T10:36:48;11.15;;;3.05;;
38089;SDS011;23904;52.322;10.232;2023-08-24T10:39:14;10.55;;;2.70;;
38089;SDS011;23904;52.322;10.232;2023-08-24T10:41:52;5.63;;;2.47;;
38089;SDS011;23904;52.322;10.232;2023-08-24T10:44:25;6.47;;;2.70;;
38089;SDS011;23904;52.322;10.232;2023-08-24T10:52:32;5.22;;;2.67;;
38089;SDS011;23904;52.322;10.232;2023-08-24T10:55:01;5.15;;;2.20;;
38089;SDS011;23904;52.322;10.232;2023-08-24T10:57:38;6.53;;;2.00;;
38089;SDS011;23904;52.322;10.232;2023-08-24T11:00:09;6.18;;;1.98;;
38089;SDS011;23904;52.322;10.232;2023-08-24T11:02:41;4.00;;;2.15;;
38089;SDS011;23904;52.322;10.232;2023-08-24T11:05:27;8.15;;;2.20;;
38089;SDS011;23904;52.322;10.232;2023-08-24T11:07:58;5.00;;;2.50;;
38089;SDS011;23904;52.322;10.232;2023-08-24T11:10:32;6.18;;;2.30;;
38089;SDS011;23904;52.322;10.232;2023-08-24T11:13:11;5.82;;;2.45;;
38089;SDS011;23904;52.322;10.232;2023-08-24T11:18:24;4.78;;;2.42;;
38089;SDS011;23904;52.322;10.232;2023-08-24T11:20:52;6.97;;;3.10;;
38089;SDS011;23904;52.322;10.232;2023-08-24T11:23:30;5.03;;;2.55;;
38089;SDS011;23904;52.322;10.232;2023-08-24T11:25:57;8.70;;;3.25;;
38089;SDS011;23904;52.322;10.232;2023-08-24T11:28:27;7.68;;;3.00;;
38089;SDS011;23904;52.322;10.232;2023-08-24T11:30:55;5.75;;;3.40;;
38089;SDS011;23904;52.322;10.232;2023-08-24T11:33:28;6.10;;;3.30;;
38089;SDS011;23904;52.322;10.232;2023-08-24T11:35:56;4.95;;;3.15;;
38089;SDS011;23904;52.322;10.232;2023-08-24T11:38:23;7.03;;;3.03;;
38089;SDS011;23904;52.322;10.232;2023-08-24T11:40:49;6.60;;;3.00;;
38089;SDS011;23904;52.322;10.232;2023-08-24T11:43:24;7.32;;;3.22;;
38089;SDS011;23904;52.322;10.232;2023-08-24T11:45:53;5.15;;;3.22;;
38089;SDS011;23904;52.322;10.232;2023-08-24T11:48:23;6.55;;;3.38;;
38089;SDS011;23904;52.322;10.232;2023-08-24T11:50:54;6.78;;;3.30;;
38089;SDS011;23904;52.322;10.232;2023-08-24T11:53:21;8.15;;;4.07;;
38089;SDS011;23904;52.322;10.232;2023-08-24T11:55:49;8.05;;;3.65;;
38089;SDS011;23904;52.322;10.232;2023-08-24T11:58:17;6.47;;;3.65;;
38089;SDS011;23904;52.322;10.232;2023-08-24T12:00:43;11.90;;;3.88;;
38089;SDS011;23904;52.322;10.232;2023-08-24T12:03:09;8.43;;;3.65;;
38089;SDS011;23904;52.322;10.232;2023-08-24T12:05:35;8.45;;;3.90;;
38089;SDS011;23904;52.322;10.232;2023-08-24T12:08:01;8.60;;;3.60;;
38089;SDS011;23904;52.322;10.232;2023-08-24T12:10:27;8.40;;;4.28;;
38089;SDS011;23904;52.322;10.232;2023-08-24T12:13:05;9.63;;;3.80;;
38089;SDS011;23904;52.322;10.232;2023-08-24T12:15:35;8.10;;;3.55;;
38089;SDS011;23904;52.322;10.232;2023-08-24T12:18:13;5.93;;;3.17;;
38089;SDS011;23904;52.322;10.232;2023-08-24T12:20:40;7.40;;;3.90;;
38089;SDS011;23904;52.322;10.232;2023-08-24T12:23:06;9.65;;;4.63;;
38089;SDS011;23904;52.322;10.232;2023-08-24T12:25:53;8.48;;;3.90;;
38089;SDS011;23904;52.322;10.232;2023-08-24T12:28:20;7.30;;;4.03;;
38089;SDS011;23904;52.322;10.232;2023-08-24T12:30:49;9.05;;;3.67;;
38089;SDS011;23904;52.322;10.232;2023-08-24T12:35:52;7.88;;;4.47;;
38089;SDS011;23904;52.322;10.232;2023-08-24T12:38:18;5.25;;;3.85;;
38089;SDS011;23904;52.322;10.232;2023-08-24T12:40:44;5.80;;;3.42;;
38089;SDS011;23904;52.322;10.232;2023-08-24T12:43:10;9.70;;;3.25;;
38089;SDS011;23904;52.322;10.232;2023-08-24T12:45:36;8.48;;;3.90;;
38089;SDS011;23904;52.322;10.232;2023-08-24T12:48:03;9.48;;;3.35;;
38089;SDS011;23904;52.322;10.232;2023-08-24T12:50:34;7.32;;;3.67;;
38089;SDS011;23904;52.322;10.232;2023-08-24T12:53:01;10.05;;;3.50;;
38089;SDS011;23904;52.322;10.232;2023-08-24T12:55:28;6.15;;;3.75;;
38089;SDS011;23904;52.322;10.232;2023-08-24T12:57:54;13.23;;;4.38;;
38089;SDS011;23904;52.322;10.232;2023-08-24T13:00:19;10.30;;;4.60;;
38089;SDS011;23904;52.322;10.232;2023-08-24T13:02:46;9.70;;;4.70;;
38089;SDS011;23904;52.322;10.232;2023-08-24T13:05:13;7.75;;;4.32;;
38089;SDS011;23904;52.322;10.232;2023-08-24T13:07:39;11.32;;;4.05;;
38089;SDS011;23904;52.322;10.232;2023-08-24T13:10:05;11.95;;;4.80;;
38089;SDS011;23904;52.322;10.232;2023-08-24T13:12:31;9.05;;;4.25;;
38089;SDS011;23904;52.322;10.232;2023-08-24T13:14:59;9.40;;;4.55;;
38089;SDS011;23904;52.322;10.232;2023-08-24T13:17:24;7.85;;;4.20;;
38089;SDS011;23904;52.322;10.232;2023-08-24T13:19:50;7.28;;;4.05;;
38089;SDS011;23904;52.322;10.232;2023-08-24T13:22:15;14.48;;;6.03;;
38089;SDS011;23904;52.322;10.232;2023-08-24T13:24:41;11.82;;;5.38;;
38089;SDS011;23904;52.322;10.232;2023-08-24T13:27:09;11.32;;;4.60;;
38089;SDS011;23904;52.322;10.232;2023-08-24T13:29:35;10.40;;;4.60;;
38089;SDS011;23904;52.322;10.232;2023-08-24T13:32:02;11.90;;;5.75;;
38089;SDS011;23904;52.322;10.232;2023-08-24T13:34:28;8.00;;;4.47;;
38089;SDS011;23904;52.322;10.232;2023-08-24T13:36:55;13.88;;;4.57;;
38089;SDS011;23904;52.322;10.232;2023-08-24T13:39:23;6.28;;;3.90;;
38089;SDS011;23904;52.322;10.232;2023-08-24T13:41:50;8.90;;;4.70;;
38089;SDS011;23904;52.322;10.232;2023-08-24T13:44:16;12.05;;;3.78;;
38089;SDS011;23904;52.322;10.232;2023-08-24T13:46:41;8.40;;;3.50;;
38089;SDS011;23904;52.322;10.232;2023-08-24T13:49:07;6.57;;;3.40;;
38089;SDS011;23904;52.322;10.232;2023-08-24T13:51:33;14.15;;;4.32;;
38089;SDS011;23904;52.322;10.232;2023-08-24T13:53:59;12.15;;;4.07;;
38089;SDS011;23904;52.322;10.232;2023-08-24T13:56:24;6.35;;;3.30;;
38089;SDS011;23904;52.322;10.232;2023-08-24T13:58:50;7.25;;;3.50;;
38089;SDS011;23904;52.322;10.232;2023-08-24T14:01:16;8.38;;;3.70;;
38089;SDS011;23904;52.322;10.232;2023-08-24T14:03:41;8.90;;;3.63;;
38089;SDS011;23904;52.322;10.232;2023-08-24T14:06:08;7.50;;;3.17;;
38089;SDS011;23904;52.322;10.232;2023-08-24T14:08:35;7.38;;;3.22;;
38089;SDS011;23904;52.322;10.232;2023-08-24T14:11:01;6.53;;;3.75;;
38089;SDS011;23904;52.322;10.232;2023-08-24T14:13:28;9.15;;;3.95;;
38089;SDS011;23904;52.322;10.232;2023-08-24T14:15:54;12.20;;;3.67;;
38089;SDS011;23904;52.322;10.232;2023-08-24T14:18:21;11.35;;;3.80;;
38089;SDS011;23904;52.322;10.232;2023-08-24T14:20:46;8.25;;;2.75;;
38089;SDS011;23904;52.322;10.232;2023-08-24T14:23:12;6.20;;;2.70;;
38089;SDS011;23904;52.322;10.232;2023-08-24T14:25:38;4.72;;;2.85;;
38089;SDS011;23904;52.322;10.232;2023-08-24T14:28:04;11.02;;;2.90;;
38089;SDS011;23904;52.322;10.232;2023-08-24T14:30:29;6.35;;;2.30;;
38089;SDS011;23904;52.322;10.232;2023-08-24T14:32:55;6.18;;;2.70;;
38089;SDS011;23904;52.322;10.232;2023-08-24T14:35:20;5.85;;;2.63;;
38089;SDS011;23904;52.322;10.232;2023-08-24T14:37:46;5.30;;;2.10;;
38089;SDS011;23904;52.322;10.232;2023-08-24T14:40:12;5.93;;;2.47;;
38089;SDS011;23904;52.322;10.232;2023-08-24T14:42:37;5.43;;;2.72;;
38089;SDS011;23904;52.322;10.232;2023-08-24T14:45:03;5.60;;;2.42;;